Hlavní strana
METAR-TAF:

METAR-TAF

Letiště :

St. Gallen, Švýcarsko

zeměpisná šířka: 47-29-06N, zeměpisná délka: 009-33-43E, výška: 398 m

Aktuální stav počasí

Zpráva byla vytvořena před 32 minutami, v 07:20 UTC
Východojihovýchodní vítr 5 kt
Teplota -2°C
Vlhkost vzduchu 74%
Tlak 1023 hPa
Viditelnost 10 km a více
Zataženo ve výšce 2300 ft

METAR: LSZR 150720Z 12005KT 9999 OVC023 M02/M06 Q1023 NOSIG RMK B

Čas: 08:52 (07:52 UTC)

Předpověď počasí

Zpráva byla vytvořena před 2 hodinami a 27 minutami, v 05:25 UTC
Předpověď platná od 15 v 06 UTC do 15 v 15 UTC
vítr z různých směrů 3 kt
Viditelnost 10 km a více
Zataženo ve výšce 2500 ft
Pravděpodobnost 40%
od 15 v 12 UTC do 15 v 15 UTC
Viditelnost 10 km a více
Žádná oblačnost pod 1500 m, nevyskytují se cumulonimby.

TAF: LSZR 150525Z 1506/1515 VRB03KT 9999 OVC025 PROB40 1512/1515 CAVOK

Stav a předpovědi počasí z více než 4 000 letišť (zprávy METAR a TAF).

Červené a žluté tečky na mapě představují dostupné meteorologické stanice.

Když kurzor umístíte na tečku, zobrazí se název stanice.

Pak kliknutím zobrazíte stav a předpověď počasí.

Chcete-li změnit mapu, kliknutím na zelené tlačítko se znaménkem +mapu přiblížíte, kliknutím na zelené tlačítko se znaménkem – mapu oddálíte a kliknutím na zelené šipky přejdete na sousední mapy.


METAR-TAF: